sensor_id;sensor_type;location;lat;lon;timestamp;P1;durP1;ratioP1;P2;durP2;ratioP2
71856;SDS011;63344;46.980;28.882;2023-02-13T00:00:33;4.72;;;1.58;;
71856;SDS011;63344;46.980;28.882;2023-02-13T00:03:18;4.88;;;1.83;;
71856;SDS011;63344;46.980;28.882;2023-02-13T00:05:45;3.53;;;1.73;;
71856;SDS011;63344;46.980;28.882;2023-02-13T00:08:13;7.13;;;2.50;;
71856;SDS011;63344;46.980;28.882;2023-02-13T00:10:40;5.85;;;1.92;;
71856;SDS011;63344;46.980;28.882;2023-02-13T00:13:07;3.78;;;2.00;;
71856;SDS011;63344;46.980;28.882;2023-02-13T00:15:34;4.93;;;2.15;;
71856;SDS011;63344;46.980;28.882;2023-02-13T00:18:02;2.22;;;1.17;;
71856;SDS011;63344;46.980;28.882;2023-02-13T00:20:29;6.28;;;1.88;;
71856;SDS011;63344;46.980;28.882;2023-02-13T00:22:57;7.30;;;2.17;;
71856;SDS011;63344;46.980;28.882;2023-02-13T00:25:25;4.55;;;1.77;;
71856;SDS011;63344;46.980;28.882;2023-02-13T00:27:52;1.52;;;0.88;;
71856;SDS011;63344;46.980;28.882;2023-02-13T00:30:20;4.45;;;1.65;;
71856;SDS011;63344;46.980;28.882;2023-02-13T00:32:48;3.53;;;1.60;;
71856;SDS011;63344;46.980;28.882;2023-02-13T00:35:15;3.35;;;1.20;;
71856;SDS011;63344;46.980;28.882;2023-02-13T00:37:42;2.97;;;1.42;;
71856;SDS011;63344;46.980;28.882;2023-02-13T00:40:09;5.45;;;1.75;;
71856;SDS011;63344;46.980;28.882;2023-02-13T00:42:37;7.55;;;1.95;;
71856;SDS011;63344;46.980;28.882;2023-02-13T00:45:04;4.47;;;1.85;;
71856;SDS011;63344;46.980;28.882;2023-02-13T00:47:32;7.25;;;1.75;;
71856;SDS011;63344;46.980;28.882;2023-02-13T00:50:00;5.68;;;2.30;;
71856;SDS011;63344;46.980;28.882;2023-02-13T00:52:27;4.00;;;1.27;;
71856;SDS011;63344;46.980;28.882;2023-02-13T00:54:54;4.18;;;1.88;;
71856;SDS011;63344;46.980;28.882;2023-02-13T00:57:21;3.78;;;1.95;;
71856;SDS011;63344;46.980;28.882;2023-02-13T00:59:48;6.32;;;1.88;;
71856;SDS011;63344;46.980;28.882;2023-02-13T01:02:17;3.38;;;1.83;;
71856;SDS011;63344;46.980;28.882;2023-02-13T01:04:44;5.82;;;1.88;;
71856;SDS011;63344;46.980;28.882;2023-02-13T01:07:12;5.15;;;2.17;;
71856;SDS011;63344;46.980;28.882;2023-02-13T01:09:41;6.88;;;1.92;;
71856;SDS011;63344;46.980;28.882;2023-02-13T01:12:09;5.03;;;2.05;;
71856;SDS011;63344;46.980;28.882;2023-02-13T01:14:37;6.53;;;2.50;;
71856;SDS011;63344;46.980;28.882;2023-02-13T01:17:04;4.95;;;1.60;;
71856;SDS011;63344;46.980;28.882;2023-02-13T01:19:31;4.47;;;2.15;;
71856;SDS011;63344;46.980;28.882;2023-02-13T01:21:59;5.43;;;2.05;;
71856;SDS011;63344;46.980;28.882;2023-02-13T01:24:26;4.50;;;2.28;;
71856;SDS011;63344;46.980;28.882;2023-02-13T01:26:56;6.03;;;2.10;;
71856;SDS011;63344;46.980;28.882;2023-02-13T01:29:23;5.82;;;1.92;;
71856;SDS011;63344;46.980;28.882;2023-02-13T01:31:50;2.03;;;1.20;;
71856;SDS011;63344;46.980;28.882;2023-02-13T01:34:18;5.25;;;2.55;;
71856;SDS011;63344;46.980;28.882;2023-02-13T01:36:45;6.38;;;1.92;;
71856;SDS011;63344;46.980;28.882;2023-02-13T01:39:12;5.63;;;2.10;;
71856;SDS011;63344;46.980;28.882;2023-02-13T01:41:39;4.22;;;2.13;;
71856;SDS011;63344;46.980;28.882;2023-02-13T01:47:12;4.88;;;2.03;;
71856;SDS011;63344;46.980;28.882;2023-02-13T01:49:41;5.53;;;2.30;;
71856;SDS011;63344;46.980;28.882;2023-02-13T01:52:12;4.97;;;2.00;;
71856;SDS011;63344;46.980;28.882;2023-02-13T01:54:40;4.78;;;2.13;;
71856;SDS011;63344;46.980;28.882;2023-02-13T01:57:11;3.05;;;1.60;;
71856;SDS011;63344;46.980;28.882;2023-02-13T01:59:50;6.93;;;2.53;;
71856;SDS011;63344;46.980;28.882;2023-02-13T02:02:21;5.30;;;2.45;;
71856;SDS011;63344;46.980;28.882;2023-02-13T02:04:49;4.32;;;1.83;;
71856;SDS011;63344;46.980;28.882;2023-02-13T02:07:21;6.50;;;2.13;;
71856;SDS011;63344;46.980;28.882;2023-02-13T02:09:52;6.90;;;1.95;;
71856;SDS011;63344;46.980;28.882;2023-02-13T02:12:28;4.90;;;1.67;;
71856;SDS011;63344;46.980;28.882;2023-02-13T02:15:03;6.13;;;2.33;;
71856;SDS011;63344;46.980;28.882;2023-02-13T02:17:31;6.30;;;2.20;;
71856;SDS011;63344;46.980;28.882;2023-02-13T02:20:21;2.42;;;1.08;;
71856;SDS011;63344;46.980;28.882;2023-02-13T02:26:26;5.95;;;2.28;;
71856;SDS011;63344;46.980;28.882;2023-02-13T02:40:41;3.53;;;2.00;;
71856;SDS011;63344;46.980;28.882;2023-02-13T02:49:06;4.13;;;1.77;;
71856;SDS011;63344;46.980;28.882;2023-02-13T02:54:48;5.20;;;2.03;;
71856;SDS011;63344;46.980;28.882;2023-02-13T02:57:34;2.63;;;1.38;;
71856;SDS011;63344;46.980;28.882;2023-02-13T03:00:39;4.22;;;2.22;;
71856;SDS011;63344;46.980;28.882;2023-02-13T03:03:27;5.40;;;2.08;;
71856;SDS011;63344;46.980;28.882;2023-02-13T03:09:23;4.93;;;1.70;;
71856;SDS011;63344;46.980;28.882;2023-02-13T03:12:14;3.63;;;2.05;;
71856;SDS011;63344;46.980;28.882;2023-02-13T03:15:05;4.65;;;1.33;;
71856;SDS011;63344;46.980;28.882;2023-02-13T03:17:33;6.07;;;1.90;;
71856;SDS011;63344;46.980;28.882;2023-02-13T03:23:51;5.25;;;1.88;;
71856;SDS011;63344;46.980;28.882;2023-02-13T03:27:13;7.10;;;1.83;;
71856;SDS011;63344;46.980;28.882;2023-02-13T03:29:51;4.10;;;2.00;;
71856;SDS011;63344;46.980;28.882;2023-02-13T03:32:44;7.40;;;3.33;;
71856;SDS011;63344;46.980;28.882;2023-02-13T03:35:36;3.25;;;1.83;;
71856;SDS011;63344;46.980;28.882;2023-02-13T03:38:31;6.03;;;2.20;;
71856;SDS011;63344;46.980;28.882;2023-02-13T03:41:11;4.20;;;2.25;;
71856;SDS011;63344;46.980;28.882;2023-02-13T03:46:15;4.68;;;2.13;;
71856;SDS011;63344;46.980;28.882;2023-02-13T03:48:44;4.57;;;2.67;;
71856;SDS011;63344;46.980;28.882;2023-02-13T03:51:54;6.30;;;2.53;;
71856;SDS011;63344;46.980;28.882;2023-02-13T03:54:26;5.60;;;2.47;;
71856;SDS011;63344;46.980;28.882;2023-02-13T03:57:20;6.32;;;2.15;;
71856;SDS011;63344;46.980;28.882;2023-02-13T04:00:10;7.20;;;2.67;;
71856;SDS011;63344;46.980;28.882;2023-02-13T04:03:02;5.82;;;2.92;;
71856;SDS011;63344;46.980;28.882;2023-02-13T04:05:31;5.43;;;2.10;;
71856;SDS011;63344;46.980;28.882;2023-02-13T04:08:06;7.13;;;2.85;;
71856;SDS011;63344;46.980;28.882;2023-02-13T04:10:35;7.65;;;3.13;;
71856;SDS011;63344;46.980;28.882;2023-02-13T04:13:26;8.50;;;2.60;;
71856;SDS011;63344;46.980;28.882;2023-02-13T04:16:02;5.65;;;2.53;;
71856;SDS011;63344;46.980;28.882;2023-02-13T04:18:36;6.35;;;2.75;;
71856;SDS011;63344;46.980;28.882;2023-02-13T04:21:05;6.63;;;3.17;;
71856;SDS011;63344;46.980;28.882;2023-02-13T04:23:34;4.90;;;2.75;;
71856;SDS011;63344;46.980;28.882;2023-02-13T04:26:05;8.73;;;2.63;;
71856;SDS011;63344;46.980;28.882;2023-02-13T04:28:34;6.30;;;3.00;;
71856;SDS011;63344;46.980;28.882;2023-02-13T04:31:01;7.13;;;3.25;;
71856;SDS011;63344;46.980;28.882;2023-02-13T04:33:29;7.95;;;3.45;;
71856;SDS011;63344;46.980;28.882;2023-02-13T04:35:56;8.20;;;3.22;;
71856;SDS011;63344;46.980;28.882;2023-02-13T04:38:23;5.63;;;2.75;;
71856;SDS011;63344;46.980;28.882;2023-02-13T04:40:51;12.13;;;3.60;;
71856;SDS011;63344;46.980;28.882;2023-02-13T04:43:18;6.65;;;3.30;;
71856;SDS011;63344;46.980;28.882;2023-02-13T04:45:48;10.48;;;4.43;;
71856;SDS011;63344;46.980;28.882;2023-02-13T04:48:16;12.18;;;4.20;;
71856;SDS011;63344;46.980;28.882;2023-02-13T04:50:43;10.07;;;4.90;;
71856;SDS011;63344;46.980;28.882;2023-02-13T04:53:11;12.80;;;4.22;;
71856;SDS011;63344;46.980;28.882;2023-02-13T04:55:39;8.20;;;4.38;;
71856;SDS011;63344;46.980;28.882;2023-02-13T04:58:09;10.75;;;5.13;;
71856;SDS011;63344;46.980;28.882;2023-02-13T05:00:36;10.77;;;5.07;;
71856;SDS011;63344;46.980;28.882;2023-02-13T05:03:07;9.60;;;4.03;;
71856;SDS011;63344;46.980;28.882;2023-02-13T05:05:47;12.07;;;5.45;;
71856;SDS011;63344;46.980;28.882;2023-02-13T05:08:15;13.48;;;5.60;;
71856;SDS011;63344;46.980;28.882;2023-02-13T05:10:42;11.98;;;5.35;;
71856;SDS011;63344;46.980;28.882;2023-02-13T05:13:09;11.23;;;4.07;;
71856;SDS011;63344;46.980;28.882;2023-02-13T05:15:38;9.15;;;4.10;;
71856;SDS011;63344;46.980;28.882;2023-02-13T05:18:05;9.45;;;5.00;;
71856;SDS011;63344;46.980;28.882;2023-02-13T05:20:33;9.32;;;5.13;;
71856;SDS011;63344;46.980;28.882;2023-02-13T05:23:00;12.23;;;6.10;;
71856;SDS011;63344;46.980;28.882;2023-02-13T05:25:46;14.70;;;5.25;;
71856;SDS011;63344;46.980;28.882;2023-02-13T05:28:13;12.90;;;6.28;;
71856;SDS011;63344;46.980;28.882;2023-02-13T05:30:59;10.15;;;5.05;;
71856;SDS011;63344;46.980;28.882;2023-02-13T05:33:28;9.73;;;4.78;;
71856;SDS011;63344;46.980;28.882;2023-02-13T05:35:57;14.30;;;6.43;;
71856;SDS011;63344;46.980;28.882;2023-02-13T05:38:29;18.00;;;6.93;;
71856;SDS011;63344;46.980;28.882;2023-02-13T05:40:58;13.95;;;6.18;;
71856;SDS011;63344;46.980;28.882;2023-02-13T05:43:26;9.65;;;4.75;;
71856;SDS011;63344;46.980;28.882;2023-02-13T05:46:04;10.25;;;4.60;;
71856;SDS011;63344;46.980;28.882;2023-02-13T05:48:32;11.05;;;5.55;;
71856;SDS011;63344;46.980;28.882;2023-02-13T05:51:00;12.25;;;5.50;;
71856;SDS011;63344;46.980;28.882;2023-02-13T05:53:27;10.63;;;4.63;;
71856;SDS011;63344;46.980;28.882;2023-02-13T05:55:55;12.30;;;5.57;;
71856;SDS011;63344;46.980;28.882;2023-02-13T05:58:23;16.35;;;5.60;;
71856;SDS011;63344;46.980;28.882;2023-02-13T06:00:54;11.02;;;5.18;;
71856;SDS011;63344;46.980;28.882;2023-02-13T06:03:22;12.27;;;6.07;;
71856;SDS011;63344;46.980;28.882;2023-02-13T06:05:55;12.40;;;6.18;;
71856;SDS011;63344;46.980;28.882;2023-02-13T06:08:22;22.13;;;7.63;;
71856;SDS011;63344;46.980;28.882;2023-02-13T06:10:53;15.98;;;7.78;;
71856;SDS011;63344;46.980;28.882;2023-02-13T06:13:20;14.25;;;6.05;;
71856;SDS011;63344;46.980;28.882;2023-02-13T06:15:47;17.83;;;7.32;;
71856;SDS011;63344;46.980;28.882;2023-02-13T06:18:16;14.57;;;6.20;;
71856;SDS011;63344;46.980;28.882;2023-02-13T06:20:44;12.60;;;4.80;;
71856;SDS011;63344;46.980;28.882;2023-02-13T06:23:11;16.77;;;7.38;;
71856;SDS011;63344;46.980;28.882;2023-02-13T06:25:39;10.93;;;5.88;;
71856;SDS011;63344;46.980;28.882;2023-02-13T06:28:07;12.75;;;5.50;;
71856;SDS011;63344;46.980;28.882;2023-02-13T06:30:35;15.40;;;8.07;;
71856;SDS011;63344;46.980;28.882;2023-02-13T06:33:03;16.60;;;8.25;;
71856;SDS011;63344;46.980;28.882;2023-02-13T06:35:31;19.50;;;8.73;;
71856;SDS011;63344;46.980;28.882;2023-02-13T06:37:58;16.77;;;7.50;;
71856;SDS011;63344;46.980;28.882;2023-02-13T06:40:26;20.83;;;8.68;;
71856;SDS011;63344;46.980;28.882;2023-02-13T06:42:53;18.20;;;8.20;;
71856;SDS011;63344;46.980;28.882;2023-02-13T06:45:21;19.73;;;8.57;;
71856;SDS011;63344;46.980;28.882;2023-02-13T06:47:52;24.15;;;9.52;;
71856;SDS011;63344;46.980;28.882;2023-02-13T06:50:20;24.17;;;10.55;;
71856;SDS011;63344;46.980;28.882;2023-02-13T06:52:48;27.25;;;10.82;;
71856;SDS011;63344;46.980;28.882;2023-02-13T06:55:17;19.45;;;9.52;;
71856;SDS011;63344;46.980;28.882;2023-02-13T06:57:46;12.88;;;6.22;;
71856;SDS011;63344;46.980;28.882;2023-02-13T07:00:17;24.60;;;8.50;;
71856;SDS011;63344;46.980;28.882;2023-02-13T07:02:52;26.92;;;10.43;;
71856;SDS011;63344;46.980;28.882;2023-02-13T07:05:19;22.35;;;10.40;;
71856;SDS011;63344;46.980;28.882;2023-02-13T07:07:47;26.20;;;11.88;;
71856;SDS011;63344;46.980;28.882;2023-02-13T07:10:14;23.13;;;10.68;;
71856;SDS011;63344;46.980;28.882;2023-02-13T07:12:42;24.65;;;12.05;;
71856;SDS011;63344;46.980;28.882;2023-02-13T07:15:13;24.27;;;10.65;;
71856;SDS011;63344;46.980;28.882;2023-02-13T07:17:40;24.58;;;11.07;;
71856;SDS011;63344;46.980;28.882;2023-02-13T07:20:08;18.42;;;8.32;;
71856;SDS011;63344;46.980;28.882;2023-02-13T07:22:39;17.48;;;7.78;;
71856;SDS011;63344;46.980;28.882;2023-02-13T07:25:07;19.27;;;8.07;;
71856;SDS011;63344;46.980;28.882;2023-02-13T07:27:35;14.52;;;6.20;;
71856;SDS011;63344;46.980;28.882;2023-02-13T07:30:02;10.55;;;4.53;;
71856;SDS011;63344;46.980;28.882;2023-02-13T07:32:30;7.45;;;3.97;;
71856;SDS011;63344;46.980;28.882;2023-02-13T07:34:58;13.20;;;5.00;;
71856;SDS011;63344;46.980;28.882;2023-02-13T07:37:28;12.07;;;4.38;;
71856;SDS011;63344;46.980;28.882;2023-02-13T07:39:57;6.97;;;3.58;;
71856;SDS011;63344;46.980;28.882;2023-02-13T07:42:24;9.65;;;4.82;;
71856;SDS011;63344;46.980;28.882;2023-02-13T07:44:52;12.25;;;5.32;;
71856;SDS011;63344;46.980;28.882;2023-02-13T07:47:19;12.50;;;5.43;;
71856;SDS011;63344;46.980;28.882;2023-02-13T07:49:47;10.70;;;4.10;;
71856;SDS011;63344;46.980;28.882;2023-02-13T07:52:14;7.05;;;3.92;;
71856;SDS011;63344;46.980;28.882;2023-02-13T07:54:41;11.57;;;4.90;;
71856;SDS011;63344;46.980;28.882;2023-02-13T07:57:13;11.23;;;5.43;;
71856;SDS011;63344;46.980;28.882;2023-02-13T07:59:42;11.35;;;5.30;;
71856;SDS011;63344;46.980;28.882;2023-02-13T08:02:10;8.48;;;4.57;;
71856;SDS011;63344;46.980;28.882;2023-02-13T08:04:41;9.60;;;4.38;;
71856;SDS011;63344;46.980;28.882;2023-02-13T08:07:12;10.00;;;4.15;;
71856;SDS011;63344;46.980;28.882;2023-02-13T08:09:45;8.90;;;4.88;;
71856;SDS011;63344;46.980;28.882;2023-02-13T08:12:32;10.77;;;4.70;;
71856;SDS011;63344;46.980;28.882;2023-02-13T08:15:02;8.95;;;4.65;;
71856;SDS011;63344;46.980;28.882;2023-02-13T08:17:30;12.93;;;4.78;;
71856;SDS011;63344;46.980;28.882;2023-02-13T08:19:57;11.88;;;4.93;;
71856;SDS011;63344;46.980;28.882;2023-02-13T08:22:25;11.63;;;4.88;;
71856;SDS011;63344;46.980;28.882;2023-02-13T08:24:52;13.07;;;5.65;;
71856;SDS011;63344;46.980;28.882;2023-02-13T08:27:20;11.90;;;5.30;;
71856;SDS011;63344;46.980;28.882;2023-02-13T08:29:49;10.52;;;5.25;;
71856;SDS011;63344;46.980;28.882;2023-02-13T08:32:17;10.77;;;5.55;;
71856;SDS011;63344;46.980;28.882;2023-02-13T08:34:48;13.35;;;5.65;;
71856;SDS011;63344;46.980;28.882;2023-02-13T08:37:16;13.98;;;6.15;;
71856;SDS011;63344;46.980;28.882;2023-02-13T08:39:44;13.27;;;5.82;;
71856;SDS011;63344;46.980;28.882;2023-02-13T08:42:11;13.20;;;6.25;;
71856;SDS011;63344;46.980;28.882;2023-02-13T08:44:42;13.82;;;6.60;;
71856;SDS011;63344;46.980;28.882;2023-02-13T08:47:09;16.52;;;6.25;;
71856;SDS011;63344;46.980;28.882;2023-02-13T08:49:37;12.73;;;5.82;;
71856;SDS011;63344;46.980;28.882;2023-02-13T08:52:04;13.57;;;7.07;;
71856;SDS011;63344;46.980;28.882;2023-02-13T08:54:32;11.35;;;6.07;;
71856;SDS011;63344;46.980;28.882;2023-02-13T08:57:00;13.07;;;6.22;;
71856;SDS011;63344;46.980;28.882;2023-02-13T08:59:27;9.48;;;4.65;;
71856;SDS011;63344;46.980;28.882;2023-02-13T09:01:56;12.90;;;4.65;;
71856;SDS011;63344;46.980;28.882;2023-02-13T09:04:24;12.50;;;5.72;;
71856;SDS011;63344;46.980;28.882;2023-02-13T09:06:52;13.40;;;4.68;;
71856;SDS011;63344;46.980;28.882;2023-02-13T09:09:19;15.40;;;5.53;;
71856;SDS011;63344;46.980;28.882;2023-02-13T09:11:47;9.13;;;4.50;;
71856;SDS011;63344;46.980;28.882;2023-02-13T09:14:17;9.55;;;5.53;;
71856;SDS011;63344;46.980;28.882;2023-02-13T09:16:49;13.45;;;6.15;;
71856;SDS011;63344;46.980;28.882;2023-02-13T09:19:16;8.52;;;5.25;;
71856;SDS011;63344;46.980;28.882;2023-02-13T09:21:55;9.85;;;5.22;;
71856;SDS011;63344;46.980;28.882;2023-02-13T09:24:36;17.27;;;6.93;;
71856;SDS011;63344;46.980;28.882;2023-02-13T09:27:04;14.10;;;7.18;;
71856;SDS011;63344;46.980;28.882;2023-02-13T09:29:32;11.65;;;4.93;;
71856;SDS011;63344;46.980;28.882;2023-02-13T09:31:59;17.25;;;6.88;;
71856;SDS011;63344;46.980;28.882;2023-02-13T09:34:27;14.70;;;7.05;;
71856;SDS011;63344;46.980;28.882;2023-02-13T09:36:54;12.48;;;7.38;;
71856;SDS011;63344;46.980;28.882;2023-02-13T09:39:21;14.85;;;7.40;;
71856;SDS011;63344;46.980;28.882;2023-02-13T09:41:49;11.13;;;6.68;;
71856;SDS011;63344;46.980;28.882;2023-02-13T09:44:26;11.88;;;6.22;;
71856;SDS011;63344;46.980;28.882;2023-02-13T09:50:06;13.00;;;7.28;;
71856;SDS011;63344;46.980;28.882;2023-02-13T09:52:39;18.08;;;7.28;;
71856;SDS011;63344;46.980;28.882;2023-02-13T10:00:50;15.60;;;6.18;;
71856;SDS011;63344;46.980;28.882;2023-02-13T10:03:38;12.43;;;6.70;;
71856;SDS011;63344;46.980;28.882;2023-02-13T10:06:18;8.90;;;4.75;;
71856;SDS011;63344;46.980;28.882;2023-02-13T10:10:05;9.45;;;5.00;;
71856;SDS011;63344;46.980;28.882;2023-02-13T10:18:05;14.77;;;6.53;;
71856;SDS011;63344;46.980;28.882;2023-02-13T10:20:49;16.27;;;6.10;;
71856;SDS011;63344;46.980;28.882;2023-02-13T10:28:53;21.15;;;5.68;;
71856;SDS011;63344;46.980;28.882;2023-02-13T10:31:45;6.50;;;3.78;;
71856;SDS011;63344;46.980;28.882;2023-02-13T10:34:16;11.90;;;5.05;;
71856;SDS011;63344;46.980;28.882;2023-02-13T10:36:51;10.25;;;4.75;;
71856;SDS011;63344;46.980;28.882;2023-02-13T10:39:26;11.65;;;5.55;;
71856;SDS011;63344;46.980;28.882;2023-02-13T10:41:58;14.40;;;5.50;;
71856;SDS011;63344;46.980;28.882;2023-02-13T10:44:43;9.30;;;5.32;;
71856;SDS011;63344;46.980;28.882;2023-02-13T11:02:13;7.57;;;3.63;;
71856;SDS011;63344;46.980;28.882;2023-02-13T11:04:57;12.60;;;4.72;;
71856;SDS011;63344;46.980;28.882;2023-02-13T11:07:28;12.50;;;5.07;;
71856;SDS011;63344;46.980;28.882;2023-02-13T11:09:59;6.18;;;3.53;;
71856;SDS011;63344;46.980;28.882;2023-02-13T11:12:32;10.98;;;4.47;;
71856;SDS011;63344;46.980;28.882;2023-02-13T11:15:01;12.52;;;4.35;;
71856;SDS011;63344;46.980;28.882;2023-02-13T11:17:31;8.35;;;3.70;;
71856;SDS011;63344;46.980;28.882;2023-02-13T11:20:04;6.65;;;3.90;;
71856;SDS011;63344;46.980;28.882;2023-02-13T11:22:34;8.88;;;4.18;;
71856;SDS011;63344;46.980;28.882;2023-02-13T11:25:06;6.35;;;3.85;;
71856;SDS011;63344;46.980;28.882;2023-02-13T11:27:44;9.43;;;4.55;;
71856;SDS011;63344;46.980;28.882;2023-02-13T11:33:05;8.93;;;4.40;;
71856;SDS011;63344;46.980;28.882;2023-02-13T11:35:47;12.60;;;4.65;;
71856;SDS011;63344;46.980;28.882;2023-02-13T11:40:42;7.25;;;3.83;;
71856;SDS011;63344;46.980;28.882;2023-02-13T11:43:17;8.82;;;4.75;;
71856;SDS011;63344;46.980;28.882;2023-02-13T11:46:07;12.30;;;4.50;;
71856;SDS011;63344;46.980;28.882;2023-02-13T11:57:16;9.95;;;5.05;;
71856;SDS011;63344;46.980;28.882;2023-02-13T11:59:52;9.05;;;4.65;;
71856;SDS011;63344;46.980;28.882;2023-02-13T12:02:21;9.85;;;5.07;;
71856;SDS011;63344;46.980;28.882;2023-02-13T12:04:50;12.38;;;5.28;;
71856;SDS011;63344;46.980;28.882;2023-02-13T12:07:21;8.82;;;5.15;;
71856;SDS011;63344;46.980;28.882;2023-02-13T12:09:54;13.05;;;5.25;;
71856;SDS011;63344;46.980;28.882;2023-02-13T12:12:30;9.93;;;4.45;;
71856;SDS011;63344;46.980;28.882;2023-02-13T12:15:02;9.50;;;5.22;;
71856;SDS011;63344;46.980;28.882;2023-02-13T12:17:43;8.32;;;4.10;;
71856;SDS011;63344;46.980;28.882;2023-02-13T12:20:13;6.80;;;3.75;;
71856;SDS011;63344;46.980;28.882;2023-02-13T12:26:01;7.32;;;3.92;;
71856;SDS011;63344;46.980;28.882;2023-02-13T12:37:18;9.68;;;4.32;;
71856;SDS011;63344;46.980;28.882;2023-02-13T12:40:22;11.40;;;4.63;;
71856;SDS011;63344;46.980;28.882;2023-02-13T12:51:35;10.30;;;4.18;;
71856;SDS011;63344;46.980;28.882;2023-02-13T12:57:26;7.35;;;3.65;;
71856;SDS011;63344;46.980;28.882;2023-02-13T13:25:51;10.57;;;3.58;;
71856;SDS011;63344;46.980;28.882;2023-02-13T13:28:33;20.02;;;6.57;;
71856;SDS011;63344;46.980;28.882;2023-02-13T13:31:03;9.82;;;3.75;;
71856;SDS011;63344;46.980;28.882;2023-02-13T13:33:35;11.32;;;4.43;;
71856;SDS011;63344;46.980;28.882;2023-02-13T13:36:14;7.93;;;3.80;;
71856;SDS011;63344;46.980;28.882;2023-02-13T13:38:51;12.38;;;4.95;;
71856;SDS011;63344;46.980;28.882;2023-02-13T13:41:50;15.02;;;5.07;;
71856;SDS011;63344;46.980;28.882;2023-02-13T13:46:59;7.82;;;4.03;;
71856;SDS011;63344;46.980;28.882;2023-02-13T13:52:28;13.55;;;4.75;;
71856;SDS011;63344;46.980;28.882;2023-02-13T13:55:08;11.10;;;3.85;;
71856;SDS011;63344;46.980;28.882;2023-02-13T13:58:20;11.73;;;3.90;;
71856;SDS011;63344;46.980;28.882;2023-02-13T14:03:57;11.10;;;4.40;;
71856;SDS011;63344;46.980;28.882;2023-02-13T14:09:45;14.23;;;5.07;;
71856;SDS011;63344;46.980;28.882;2023-02-13T14:12:52;12.95;;;4.57;;
71856;SDS011;63344;46.980;28.882;2023-02-13T14:15:00;16.50;;;5.70;;
71856;SDS011;63344;46.980;28.882;2023-02-13T14:17:46;11.45;;;4.65;;
71856;SDS011;63344;46.980;28.882;2023-02-13T14:20:27;14.30;;;6.07;;
71856;SDS011;63344;46.980;28.882;2023-02-13T14:23:06;15.00;;;7.03;;
71856;SDS011;63344;46.980;28.882;2023-02-13T14:26:16;15.05;;;5.65;;
71856;SDS011;63344;46.980;28.882;2023-02-13T14:34:06;14.27;;;5.38;;
71856;SDS011;63344;46.980;28.882;2023-02-13T14:37:11;12.13;;;4.18;;
71856;SDS011;63344;46.980;28.882;2023-02-13T14:45:59;14.32;;;5.20;;
71856;SDS011;63344;46.980;28.882;2023-02-13T14:48:41;19.02;;;5.97;;
71856;SDS011;63344;46.980;28.882;2023-02-13T14:51:16;12.18;;;5.28;;
71856;SDS011;63344;46.980;28.882;2023-02-13T14:53:56;13.55;;;5.63;;
71856;SDS011;63344;46.980;28.882;2023-02-13T14:56:27;13.13;;;5.97;;
71856;SDS011;63344;46.980;28.882;2023-02-13T15:01:42;10.82;;;4.47;;
71856;SDS011;63344;46.980;28.882;2023-02-13T15:04:25;11.27;;;5.00;;
71856;SDS011;63344;46.980;28.882;2023-02-13T15:07:20;14.90;;;6.30;;
71856;SDS011;63344;46.980;28.882;2023-02-13T15:09:54;11.50;;;5.53;;
71856;SDS011;63344;46.980;28.882;2023-02-13T15:12:35;15.93;;;6.57;;
71856;SDS011;63344;46.980;28.882;2023-02-13T15:15:24;14.48;;;6.20;;
71856;SDS011;63344;46.980;28.882;2023-02-13T15:17:54;11.43;;;5.38;;
71856;SDS011;63344;46.980;28.882;2023-02-13T15:20:32;17.63;;;7.10;;
71856;SDS011;63344;46.980;28.882;2023-02-13T15:23:01;15.63;;;6.82;;
71856;SDS011;63344;46.980;28.882;2023-02-13T15:25:33;12.85;;;5.22;;
71856;SDS011;63344;46.980;28.882;2023-02-13T15:28:06;15.23;;;6.40;;
71856;SDS011;63344;46.980;28.882;2023-02-13T15:30:50;11.02;;;5.43;;
71856;SDS011;63344;46.980;28.882;2023-02-13T15:33:45;16.90;;;6.43;;
71856;SDS011;63344;46.980;28.882;2023-02-13T15:36:19;17.50;;;6.80;;
71856;SDS011;63344;46.980;28.882;2023-02-13T15:38:47;15.05;;;5.10;;
71856;SDS011;63344;46.980;28.882;2023-02-13T15:41:19;18.58;;;6.47;;
71856;SDS011;63344;46.980;28.882;2023-02-13T15:43:54;15.40;;;7.00;;
71856;SDS011;63344;46.980;28.882;2023-02-13T15:46:28;10.55;;;5.72;;
71856;SDS011;63344;46.980;28.882;2023-02-13T15:48:58;12.23;;;5.95;;
71856;SDS011;63344;46.980;28.882;2023-02-13T15:51:30;16.35;;;7.05;;
71856;SDS011;63344;46.980;28.882;2023-02-13T15:54:00;16.20;;;8.18;;
71856;SDS011;63344;46.980;28.882;2023-02-13T15:56:30;13.80;;;6.28;;
71856;SDS011;63344;46.980;28.882;2023-02-13T15:58:59;16.52;;;6.25;;
71856;SDS011;63344;46.980;28.882;2023-02-13T16:01:27;21.65;;;7.60;;
71856;SDS011;63344;46.980;28.882;2023-02-13T16:04:02;18.90;;;8.27;;
71856;SDS011;63344;46.980;28.882;2023-02-13T16:06:32;14.15;;;6.22;;
71856;SDS011;63344;46.980;28.882;2023-02-13T16:09:02;23.17;;;7.30;;
71856;SDS011;63344;46.980;28.882;2023-02-13T16:11:54;16.67;;;6.63;;
71856;SDS011;63344;46.980;28.882;2023-02-13T16:14:28;20.35;;;7.93;;
71856;SDS011;63344;46.980;28.882;2023-02-13T16:19:55;14.77;;;5.88;;
71856;SDS011;63344;46.980;28.882;2023-02-13T16:22:34;13.70;;;5.90;;
71856;SDS011;63344;46.980;28.882;2023-02-13T16:30:41;15.57;;;6.32;;
71856;SDS011;63344;46.980;28.882;2023-02-13T16:38:42;18.02;;;7.45;;
71856;SDS011;63344;46.980;28.882;2023-02-13T16:43:52;14.88;;;6.03;;
71856;SDS011;63344;46.980;28.882;2023-02-13T16:53:59;22.75;;;7.45;;
71856;SDS011;63344;46.980;28.882;2023-02-13T16:56:52;14.02;;;6.60;;
71856;SDS011;63344;46.980;28.882;2023-02-13T17:04:29;18.30;;;7.03;;
71856;SDS011;63344;46.980;28.882;2023-02-13T17:06:59;21.70;;;7.65;;
71856;SDS011;63344;46.980;28.882;2023-02-13T17:09:27;17.92;;;6.80;;
71856;SDS011;63344;46.980;28.882;2023-02-13T17:11:54;22.33;;;7.70;;
71856;SDS011;63344;46.980;28.882;2023-02-13T17:14:23;15.18;;;6.88;;
71856;SDS011;63344;46.980;28.882;2023-02-13T17:16:50;21.75;;;8.23;;
71856;SDS011;63344;46.980;28.882;2023-02-13T17:19:21;19.42;;;8.38;;
71856;SDS011;63344;46.980;28.882;2023-02-13T17:21:49;16.80;;;7.40;;
71856;SDS011;63344;46.980;28.882;2023-02-13T17:24:21;20.52;;;8.27;;
71856;SDS011;63344;46.980;28.882;2023-02-13T17:26:49;14.10;;;6.97;;
71856;SDS011;63344;46.980;28.882;2023-02-13T17:29:18;20.27;;;7.43;;
71856;SDS011;63344;46.980;28.882;2023-02-13T17:32:00;17.15;;;7.15;;
71856;SDS011;63344;46.980;28.882;2023-02-13T17:34:29;19.45;;;7.07;;
71856;SDS011;63344;46.980;28.882;2023-02-13T17:37:00;19.13;;;7.60;;
71856;SDS011;63344;46.980;28.882;2023-02-13T17:39:27;18.52;;;7.60;;
71856;SDS011;63344;46.980;28.882;2023-02-13T17:41:54;21.42;;;8.45;;
71856;SDS011;63344;46.980;28.882;2023-02-13T17:44:22;23.33;;;8.20;;
71856;SDS011;63344;46.980;28.882;2023-02-13T17:46:50;13.30;;;6.20;;
71856;SDS011;63344;46.980;28.882;2023-02-13T17:49:17;18.48;;;8.77;;
71856;SDS011;63344;46.980;28.882;2023-02-13T17:51:45;14.90;;;6.32;;
71856;SDS011;63344;46.980;28.882;2023-02-13T17:54:13;19.45;;;7.60;;
71856;SDS011;63344;46.980;28.882;2023-02-13T17:56:42;25.65;;;9.40;;
71856;SDS011;63344;46.980;28.882;2023-02-13T17:59:10;18.92;;;7.43;;
71856;SDS011;63344;46.980;28.882;2023-02-13T18:01:38;19.35;;;8.13;;
71856;SDS011;63344;46.980;28.882;2023-02-13T18:04:05;16.20;;;8.13;;
71856;SDS011;63344;46.980;28.882;2023-02-13T18:06:32;13.52;;;6.15;;
71856;SDS011;63344;46.980;28.882;2023-02-13T18:09:00;17.17;;;6.18;;